Terminal Aerodrome Forecast
Issued by NWS Los Angeles, CA

Home | Current Version | Previous Version | Text Only | Print | Product List | Glossary On
Versions: 1 2 3 4 5 6 7 8 9 10 11 12 13 14 15 16 17 18 19 20 21
000
FTUS46 KLOX 220553
TAFSMX
TAF
KSMX 220553Z 2206/2306 VRB03KT P6SM SKC
     FM220700 VRB03KT P6SM SCT006
     FM220900 VRB03KT 5SM BR BKN007
     FM221100 00000KT 2SM BR OVC004
     FM221600 VRB03KT 5SM BR BKN007
     FM221800 30006KT P6SM FEW010
     FM222000 30012KT P6SM SKC=

USA.gov is the U.S. government's official web portal to all federal, state and local government web resources and services.